Time;durP1;ratioP1;P1;durP2;ratioP2;P2;SDS_P1;SDS_P2;PMS_P1;PMS_P2;Temp;Humidity;BMP_temperature;BMP_pressure;BME280_temperature;BME280_humidity;BME280_pressure;Samples;Min_cycle;Max_cycle;Signal;HPM_P1;HPM_P2
2022/12/10 02:15:03;;;;;;;59.72;33.83;;;-1.00;99.90;;;;;;4908055;29;20098;-85
2022/12/10 02:18:22;;;;;;;60.50;33.28;;;-1.00;99.90;;;;;;4898566;29;20051;-84
2022/12/10 02:25:34;;;;;;;67.80;35.33;;;-1.20;99.90;;;;;;4912062;29;20043;-85
2022/12/10 07:53:14;;;;;;;108.13;46.10;;;-1.30;99.90;;;;;;4840610;29;20138;-85
2022/12/10 07:56:39;;;;;;;102.78;44.13;;;-1.10;99.90;;;;;;4841984;29;20466;-82
2022/12/10 08:03:35;;;;;;;97.30;42.15;;;-1.30;99.90;;;;;;4792911;29;20045;-85
2022/12/10 08:06:03;;;;;;;103.93;44.42;;;-1.30;99.90;;;;;;4834998;29;20051;-83
2022/12/10 08:08:54;;;;;;;103.80;45.58;;;-0.30;99.90;;;;;;4837732;29;20061;-83
2022/12/10 08:11:22;;;;;;;100.32;45.10;;;-1.20;99.90;;;;;;4866481;29;20061;-85
2022/12/10 08:14:38;;;;;;;104.75;45.50;;;-1.30;99.90;;;;;;4842838;29;20552;-85
2022/12/10 08:17:25;;;;;;;100.78;45.45;;;-1.30;99.90;;;;;;4875094;29;20417;-85
2022/12/10 08:19:57;;;;;;;105.22;44.72;;;-1.30;99.90;;;;;;4931136;29;20570;-85
2022/12/10 08:22:26;;;;;;;102.93;44.20;;;-1.40;99.90;;;;;;4913270;29;20035;-86
2022/12/10 08:25:15;;;;;;;104.10;46.40;;;-1.20;99.90;;;;;;4929680;28;20059;-84
2022/12/10 08:27:48;;;;;;;98.22;45.92;;;-1.30;99.90;;;;;;4910922;28;20117;-85
2022/12/10 08:30:16;;;;;;;89.32;42.60;;;-1.30;99.90;;;;;;4911834;29;20039;-84
2022/12/10 08:32:42;;;;;;;102.55;44.45;;;-1.20;99.90;;;;;;4897598;29;20046;-84
2022/12/10 08:35:08;;;;;;;96.47;42.65;;;-1.30;99.90;;;;;;4926566;29;20051;-85
2022/12/10 08:37:33;;;;;;;98.53;45.25;;;-1.30;99.90;;;;;;4915623;29;20548;-84
2022/12/10 08:39:59;;;;;;;95.15;44.05;;;-1.30;99.90;;;;;;4914017;29;20506;-84
2022/12/10 08:42:25;;;;;;;87.32;41.80;;;-1.20;99.90;;;;;;4927294;29;20035;-84
2022/12/10 08:45:11;;;;;;;100.60;43.45;;;-1.30;99.90;;;;;;4916679;28;20043;-84
2022/12/10 08:47:37;;;;;;;91.88;43.40;;;-1.20;99.90;;;;;;4919274;28;20038;-84
2022/12/10 08:50:03;;;;;;;91.53;42.97;;;-1.20;99.90;;;;;;4911998;29;20054;-84
2022/12/10 08:52:48;;;;;;;98.22;44.42;;;-1.20;99.90;;;;;;4915255;29;20086;-84
2022/12/10 08:55:23;;;;;;;87.22;41.10;;;-1.00;99.90;;;;;;4916799;28;20090;-84
2022/12/10 08:58:30;;;;;;;87.93;42.72;;;-1.20;99.90;;;;;;4937301;28;20467;-84
2022/12/10 09:01:26;;;;;;;92.55;41.58;;;-1.10;99.90;;;;;;4859784;29;20045;-84
2022/12/10 09:03:53;;;;;;;93.32;44.53;;;-1.10;99.90;;;;;;4911873;29;20050;-84
2022/12/10 09:06:21;;;;;;;87.45;41.33;;;-1.10;99.90;;;;;;4917620;29;20054;-84
2022/12/10 09:08:47;;;;;;;91.90;43.30;;;-1.10;99.90;;;;;;4917026;29;20058;-84
2022/12/10 09:11:37;;;;;;;86.60;39.92;;;-1.10;99.90;;;;;;4916069;29;20407;-84
2022/12/10 09:14:21;;;;;;;83.78;41.28;;;-1.00;99.90;;;;;;4930085;29;20414;-84
2022/12/10 09:16:56;;;;;;;86.45;42.05;;;-1.00;99.90;;;;;;4914764;29;20031;-84
2022/12/10 09:19:21;;;;;;;92.53;43.65;;;-1.10;99.90;;;;;;4919187;29;20035;-84
2022/12/10 09:22:03;;;;;;;84.70;41.08;;;-0.90;99.90;;;;;;4947548;29;20458;-84
2022/12/10 09:24:34;;;;;;;88.55;40.70;;;-1.00;99.90;;;;;;4918474;29;20105;-84
2022/12/10 09:27:03;;;;;;;80.47;39.83;;;-1.00;99.90;;;;;;4931323;29;20067;-84
2022/12/10 09:29:29;;;;;;;83.88;40.42;;;-0.90;99.90;;;;;;4929958;29;20144;-85
2022/12/10 09:32:07;;;;;;;80.60;40.40;;;-0.90;99.90;;;;;;4933751;29;20057;-84
2022/12/10 09:34:52;;;;;;;93.00;42.00;;;-0.80;99.90;;;;;;4927300;29;20047;-85
2022/12/10 09:37:18;;;;;;;89.82;40.30;;;-0.80;99.90;;;;;;4915772;28;20063;-84
2022/12/10 09:40:02;;;;;;;86.00;41.03;;;-0.80;99.90;;;;;;4916998;28;21704;-84
2022/12/10 09:46:27;;;;;;;77.18;37.83;;;-0.80;99.90;;;;;;4944677;28;20050;-84
2022/12/10 09:49:08;;;;;;;86.68;38.53;;;-0.80;99.90;;;;;;4921556;29;20130;-84
2022/12/10 09:51:53;;;;;;;92.90;42.80;;;-0.80;99.90;;;;;;4910521;28;20043;-84
2022/12/10 09:54:52;;;;;;;88.28;40.75;;;-0.80;99.90;;;;;;4916849;29;20043;-84
2022/12/10 09:58:17;;;;;;;94.95;42.03;;;-0.80;99.90;;;;;;4916526;29;20035;-84
2022/12/10 10:04:51;;;;;;;98.15;42.35;;;-0.80;99.90;;;;;;4898987;29;20059;-84
2022/12/10 10:07:52;;;;;;;105.82;44.15;;;-0.80;99.90;;;;;;4913519;28;20035;-84
2022/12/10 10:10:47;;;;;;;100.80;44.38;;;-0.70;99.90;;;;;;4912524;29;20035;-85
2022/12/10 10:13:36;;;;;;;106.85;44.60;;;-0.70;99.90;;;;;;4916759;29;20047;-84
2022/12/10 10:16:23;;;;;;;99.07;41.83;;;-0.70;99.90;;;;;;4914212;29;20094;-84
2022/12/10 10:19:25;;;;;;;90.55;40.33;;;-0.70;99.90;;;;;;4912493;29;20490;-83
2022/12/10 10:21:51;;;;;;;93.00;43.78;;;-0.70;99.90;;;;;;4912476;29;20410;-84
2022/12/10 10:24:39;;;;;;;92.97;41.97;;;0.60;99.90;;;;;;4919204;29;20043;-84
2022/12/10 10:27:32;;;;;;;99.13;42.92;;;-0.50;99.90;;;;;;4928533;28;20046;-82
2022/12/10 10:30:05;;;;;;;98.68;43.45;;;-0.40;99.90;;;;;;4916982;29;20057;-85
2022/12/10 10:44:30;;;;;;;78.22;38.15;;;-0.40;99.90;;;;;;4942484;28;20038;-86
2022/12/10 10:47:36;;;;;;;76.45;37.67;;;-0.30;99.90;;;;;;4931040;28;20115;-82
2022/12/10 10:50:06;;;;;;;69.68;35.45;;;-0.30;99.90;;;;;;4916055;28;20039;-82
2022/12/10 10:52:37;;;;;;;67.45;34.33;;;-0.20;99.90;;;;;;4880396;29;20062;-81
2022/12/10 10:55:03;;;;;;;66.05;35.65;;;-0.20;99.90;;;;;;4912705;29;20098;-81
2022/12/10 10:58:37;;;;;;;64.40;33.72;;;-0.30;99.90;;;;;;4897254;29;20044;-82
2022/12/10 11:01:25;;;;;;;68.70;31.88;;;-0.20;99.90;;;;;;4798967;29;20042;-79
2022/12/10 11:03:57;;;;;;;59.72;32.25;;;-0.30;99.90;;;;;;4885502;29;20131;-80
2022/12/10 11:06:23;;;;;;;62.92;31.13;;;-0.30;99.90;;;;;;4882760;29;20071;-81
2022/12/10 11:08:55;;;;;;;63.90;34.08;;;-0.10;99.90;;;;;;4897943;29;20090;-82
2022/12/10 11:11:41;;;;;;;69.20;33.72;;;-0.30;99.90;;;;;;4902174;29;20044;-82
2022/12/10 11:14:13;;;;;;;68.60;34.78;;;-0.30;99.90;;;;;;4884003;29;20503;-84
2022/12/10 11:16:39;;;;;;;65.10;33.55;;;-0.20;99.90;;;;;;4882747;29;20135;-82
2022/12/10 11:19:05;;;;;;;68.25;34.00;;;-0.20;99.90;;;;;;4911412;29;20068;-82
2022/12/10 11:21:33;;;;;;;64.60;33.40;;;-0.20;99.90;;;;;;4903905;29;20055;-84
2022/12/10 11:24:03;;;;;;;69.82;34.85;;;-0.20;99.90;;;;;;4897115;29;20052;-82
2022/12/10 11:26:55;;;;;;;68.55;34.30;;;-0.20;99.90;;;;;;4888655;29;20550;-80
2022/12/10 11:29:59;;;;;;;66.00;33.40;;;-0.20;99.90;;;;;;4898980;29;20047;-82
2022/12/10 11:32:55;;;;;;;62.13;29.58;;;-0.20;99.90;;;;;;4887425;29;20044;-81
2022/12/10 11:35:39;;;;;;;56.00;28.80;;;-0.20;99.90;;;;;;4903390;29;20050;-80
2022/12/10 11:38:37;;;;;;;51.95;28.23;;;-0.20;99.90;;;;;;4895851;29;20420;-82
2022/12/10 11:41:09;;;;;;;56.13;27.70;;;-0.20;99.90;;;;;;4884040;29;20106;-82
2022/12/10 11:44:13;;;;;;;50.78;27.25;;;-0.20;99.90;;;;;;4904056;29;20044;-81
2022/12/10 11:46:53;;;;;;;50.42;27.98;;;-0.20;99.90;;;;;;4887973;29;20048;-79
2022/12/10 11:49:42;;;;;;;52.67;26.48;;;-0.10;99.90;;;;;;4898376;29;20134;-82
2022/12/10 11:52:36;;;;;;;49.08;28.30;;;-0.10;99.90;;;;;;4901942;29;20066;-82
2022/12/10 11:55:27;;;;;;;47.42;25.45;;;-0.10;99.90;;;;;;4889382;29;20036;-81
2022/12/10 11:58:23;;;;;;;49.42;26.92;;;-0.10;99.90;;;;;;4884606;29;20045;-82
2022/12/10 12:01:01;;;;;;;46.33;26.77;;;-0.10;99.90;;;;;;4886270;29;20419;-81
2022/12/10 12:03:41;;;;;;;49.42;26.50;;;0.00;99.90;;;;;;4902165;29;20515;-82
2022/12/10 12:06:15;;;;;;;47.17;27.20;;;0.00;99.90;;;;;;4904460;29;20040;-81
2022/12/10 12:08:52;;;;;;;47.20;27.58;;;0.00;99.90;;;;;;4892052;29;20032;-80
2022/12/10 12:11:41;;;;;;;47.53;27.33;;;0.00;99.90;;;;;;4890828;29;20063;-81
2022/12/10 12:14:36;;;;;;;49.47;28.27;;;-0.10;99.90;;;;;;4893017;29;20044;-81
2022/12/10 12:17:24;;;;;;;56.00;29.05;;;0.00;99.90;;;;;;4912500;29;20384;-80
2022/12/10 12:19:56;;;;;;;61.60;29.92;;;0.00;99.90;;;;;;4897217;29;20046;-81
2022/12/10 12:22:26;;;;;;;55.60;29.27;;;0.00;99.90;;;;;;4898163;29;20040;-80
2022/12/10 12:24:59;;;;;;;62.30;30.40;;;0.00;99.90;;;;;;4891946;29;20041;-80
2022/12/10 12:27:36;;;;;;;64.05;31.25;;;0.00;99.90;;;;;;4907143;29;20402;-79
2022/12/10 12:30:19;;;;;;;62.90;30.52;;;0.00;99.90;;;;;;4895895;29;20133;-79
2022/12/10 12:33:00;;;;;;;64.57;30.23;;;0.00;99.90;;;;;;4898058;29;20529;-82
2022/12/10 12:35:38;;;;;;;63.90;31.08;;;0.00;99.90;;;;;;4876630;29;20040;-82
2022/12/10 12:38:33;;;;;;;67.60;31.20;;;-0.10;99.90;;;;;;4897643;29;20036;-85
2022/12/10 12:41:17;;;;;;;68.10;31.77;;;-0.10;99.90;;;;;;4876916;29;20044;-81
2022/12/10 12:44:04;;;;;;;74.40;34.55;;;-0.10;99.90;;;;;;4901865;29;20067;-84
2022/12/10 12:46:41;;;;;;;79.90;36.03;;;-0.10;99.90;;;;;;4893214;29;20048;-79
2022/12/10 12:49:16;;;;;;;77.93;34.35;;;-0.10;99.90;;;;;;4883737;29;20048;-82
2022/12/10 12:51:52;;;;;;;80.18;35.60;;;0.70;99.90;;;;;;4871168;29;20052;-79
2022/12/10 12:54:18;;;;;;;78.07;34.58;;;-0.10;99.90;;;;;;4890098;29;20059;-78
2022/12/10 12:57:03;;;;;;;81.18;34.97;;;-0.10;99.90;;;;;;4888788;29;20040;-80
2022/12/10 12:59:32;;;;;;;80.53;35.97;;;0.00;99.90;;;;;;4905305;29;20067;-81
2022/12/10 13:02:06;;;;;;;91.10;38.75;;;-0.10;99.90;;;;;;4892335;29;20119;-80
2022/12/10 13:04:31;;;;;;;97.30;41.47;;;0.10;99.90;;;;;;4875803;29;20055;-80
2022/12/10 13:07:20;;;;;;;105.43;42.95;;;-0.10;99.90;;;;;;4885969;29;20048;-82
2022/12/10 13:09:51;;;;;;;109.40;43.53;;;0.00;99.90;;;;;;4880489;29;20474;-81
2022/12/10 13:12:48;;;;;;;111.75;44.75;;;0.00;99.90;;;;;;4877146;29;20558;-80
2022/12/10 13:15:32;;;;;;;111.65;45.17;;;0.10;99.90;;;;;;4867399;29;20543;-83
2022/12/10 13:18:18;;;;;;;132.05;47.13;;;0.10;99.90;;;;;;4890531;29;20094;-84
2022/12/10 13:21:08;;;;;;;117.15;45.63;;;0.00;99.90;;;;;;4900726;29;20055;-80
2022/12/10 13:23:48;;;;;;;126.28;47.35;;;0.10;99.90;;;;;;4874705;29;20056;-83
2022/12/10 13:26:24;;;;;;;119.60;47.67;;;0.10;99.90;;;;;;4890113;29;20107;-81
2022/12/10 13:28:53;;;;;;;125.05;46.92;;;0.10;99.90;;;;;;4877221;29;20119;-80
2022/12/10 13:31:32;;;;;;;142.05;50.25;;;0.10;99.90;;;;;;4879431;29;20979;-79
2022/12/10 13:34:00;;;;;;;127.72;47.70;;;0.10;99.90;;;;;;4889374;29;20084;-79
2022/12/10 13:36:57;;;;;;;124.30;45.40;;;0.10;99.90;;;;;;4891730;29;20044;-78
2022/12/10 13:39:34;;;;;;;130.93;50.13;;;0.20;99.90;;;;;;4891962;29;20043;-81
2022/12/10 13:44:59;;;;;;;137.32;49.63;;;0.20;99.90;;;;;;4886379;29;20051;-81
2022/12/10 13:47:34;;;;;;;134.18;48.90;;;0.20;99.90;;;;;;4890443;29;20048;-81
2022/12/10 13:50:06;;;;;;;141.10;50.40;;;0.20;99.90;;;;;;4893238;29;20127;-80
2022/12/10 13:52:37;;;;;;;139.90;49.55;;;0.10;99.90;;;;;;4876019;29;20055;-80
2022/12/10 13:55:24;;;;;;;150.77;52.63;;;0.20;99.90;;;;;;4893820;29;20048;-80
2022/12/10 13:58:05;;;;;;;118.38;46.05;;;0.20;99.90;;;;;;4878897;29;20096;-85
2022/12/10 14:00:51;;;;;;;110.80;44.53;;;0.20;99.90;;;;;;4890459;29;20108;-80
2022/12/10 14:03:41;;;;;;;114.55;45.10;;;0.20;99.90;;;;;;4891886;29;20044;-84
2022/12/10 14:06:15;;;;;;;125.30;47.35;;;0.20;99.90;;;;;;4889379;29;20056;-83
2022/12/10 14:08:50;;;;;;;123.90;45.83;;;0.30;99.90;;;;;;4891689;29;20040;-82
2022/12/10 14:11:22;;;;;;;126.45;48.78;;;0.30;99.90;;;;;;4907617;29;20135;-84
2022/12/10 14:13:54;;;;;;;129.38;49.65;;;0.30;99.90;;;;;;4887743;29;20944;-84
2022/12/10 14:16:23;;;;;;;134.23;50.83;;;0.40;99.90;;;;;;4886592;29;20041;-85
2022/12/10 14:19:12;;;;;;;117.22;47.13;;;0.40;99.90;;;;;;4890100;29;20062;-85
2022/12/10 14:22:34;;;;;;;106.88;43.30;;;0.40;99.90;;;;;;4905577;29;20108;-86
2022/12/10 14:25:17;;;;;;;85.93;38.30;;;0.40;99.90;;;;;;4909776;29;20040;-84
2022/12/10 14:27:46;;;;;;;81.10;36.60;;;0.30;99.90;;;;;;4897070;29;20072;-84
2022/12/10 14:30:23;;;;;;;91.80;39.70;;;0.90;99.90;;;;;;4881765;29;20048;-84
2022/12/10 14:32:57;;;;;;;81.95;37.78;;;0.50;99.90;;;;;;4895929;29;20092;-84
2022/12/10 14:35:26;;;;;;;84.53;36.15;;;0.30;99.90;;;;;;4883592;29;20066;-84
2022/12/10 14:37:55;;;;;;;75.70;36.15;;;0.30;99.90;;;;;;4900148;29;20550;-85
2022/12/10 14:40:38;;;;;;;77.13;33.97;;;0.30;99.90;;;;;;4897071;29;20036;-85
2022/12/10 14:43:37;;;;;;;74.07;35.13;;;0.30;99.90;;;;;;4899359;29;20167;-85
2022/12/10 14:46:05;;;;;;;78.23;33.43;;;0.40;99.90;;;;;;4891074;29;20064;-85
2022/12/10 14:48:39;;;;;;;78.22;36.08;;;0.30;99.90;;;;;;4890349;29;20044;-83
2022/12/10 14:51:14;;;;;;;73.22;33.50;;;0.30;99.90;;;;;;4884201;29;20050;-83
2022/12/10 14:53:39;;;;;;;76.75;36.17;;;0.30;99.90;;;;;;4913005;29;20414;-80
2022/12/10 14:56:07;;;;;;;73.32;34.00;;;0.30;99.90;;;;;;4892838;29;20036;-84
2022/12/10 14:58:47;;;;;;;77.47;33.90;;;0.30;99.90;;;;;;4895298;29;20435;-80
2022/12/10 15:01:21;;;;;;;80.65;33.97;;;0.30;99.90;;;;;;4902439;29;20051;-84
2022/12/10 15:03:48;;;;;;;76.50;34.28;;;0.30;99.90;;;;;;4895573;29;20432;-79
2022/12/10 15:06:17;;;;;;;87.95;37.92;;;0.30;99.90;;;;;;4874159;29;20069;-83
2022/12/10 15:08:44;;;;;;;76.72;32.47;;;0.30;99.90;;;;;;4892143;29;20228;-82
2022/12/10 15:11:16;;;;;;;81.30;33.58;;;0.30;99.90;;;;;;4889356;29;20066;-81
2022/12/10 15:13:53;;;;;;;75.25;34.05;;;0.20;99.90;;;;;;4881996;29;20058;-80
2022/12/10 15:16:44;;;;;;;81.82;30.85;;;0.20;99.90;;;;;;4901858;29;20055;-82
2022/12/10 15:19:35;;;;;;;84.43;34.00;;;0.20;99.90;;;;;;4891712;29;20134;-80
2022/12/10 15:22:11;;;;;;;84.38;34.10;;;0.20;99.90;;;;;;4885946;29;20047;-82
2022/12/10 15:24:41;;;;;;;81.10;32.95;;;0.20;99.90;;;;;;4919755;29;20043;-81
2022/12/10 15:27:21;;;;;;;81.85;32.75;;;0.10;99.90;;;;;;4907542;29;20038;-83
2022/12/10 15:29:49;;;;;;;84.68;32.78;;;0.10;99.90;;;;;;4902321;29;20392;-81
2022/12/10 15:32:24;;;;;;;96.30;38.05;;;0.10;99.90;;;;;;4887553;29;20043;-82
2022/12/10 15:35:04;;;;;;;127.43;42.45;;;0.10;99.90;;;;;;4902119;29;20619;-82
2022/12/10 15:37:40;;;;;;;118.53;43.55;;;0.10;99.90;;;;;;4919381;29;20723;-84
2022/12/10 15:40:30;;;;;;;131.70;43.53;;;0.10;99.90;;;;;;4885915;29;20063;-82
2022/12/10 15:43:11;;;;;;;129.85;43.67;;;0.10;99.90;;;;;;4923364;29;20668;-83
2022/12/10 15:45:40;;;;;;;116.85;41.25;;;0.10;99.90;;;;;;4890420;29;20418;-83
2022/12/10 15:48:12;;;;;;;105.40;39.53;;;0.90;99.90;;;;;;4910611;29;21805;-82
2022/12/10 15:50:41;;;;;;;79.25;31.50;;;0.00;99.90;;;;;;4900974;29;20125;-83
2022/12/10 15:53:25;;;;;;;84.45;33.78;;;0.10;99.90;;;;;;4886650;29;20047;-84
2022/12/10 15:55:51;;;;;;;86.82;32.53;;;0.10;99.90;;;;;;4885071;29;20058;-83
2022/12/10 15:58:17;;;;;;;112.85;38.58;;;0.10;99.90;;;;;;4900322;29;20938;-83
2022/12/10 16:00:46;;;;;;;119.20;39.63;;;0.00;99.90;;;;;;4884756;29;20758;-83
2022/12/10 16:03:18;;;;;;;129.13;42.88;;;0.00;99.90;;;;;;4923845;29;20043;-81
2022/12/10 16:05:46;;;;;;;132.77;41.58;;;0.00;99.90;;;;;;4916641;29;20745;-83
2022/12/10 16:08:32;;;;;;;123.47;42.08;;;0.00;99.90;;;;;;4898585;29;20130;-84
2022/12/10 16:11:11;;;;;;;108.68;38.55;;;0.00;99.90;;;;;;4901232;29;21053;-84
2022/12/10 16:13:40;;;;;;;115.18;39.25;;;0.30;99.90;;;;;;4885453;29;20127;-82
2022/12/10 16:16:13;;;;;;;130.85;40.42;;;0.00;99.90;;;;;;4899012;29;20063;-82
2022/12/10 16:18:38;;;;;;;154.75;42.47;;;0.00;99.90;;;;;;4918217;29;20044;-83
2022/12/10 16:21:05;;;;;;;142.48;41.33;;;0.20;99.90;;;;;;4892554;29;20055;-82
2022/12/10 16:23:31;;;;;;;147.63;40.38;;;-0.10;99.90;;;;;;4891001;29;20107;-83
2022/12/10 16:25:57;;;;;;;142.05;40.53;;;0.20;99.90;;;;;;4908776;29;20051;-83
2022/12/10 16:28:24;;;;;;;171.27;41.22;;;-0.10;99.90;;;;;;4886893;29;21020;-82
2022/12/10 16:30:58;;;;;;;134.18;39.30;;;-0.10;99.90;;;;;;4903423;29;20047;-82
2022/12/10 16:33:26;;;;;;;174.25;42.60;;;-0.10;99.90;;;;;;4901352;29;20059;-82
2022/12/10 16:35:53;;;;;;;185.20;40.50;;;-0.10;99.90;;;;;;4889239;29;20040;-82
2022/12/10 16:38:19;;;;;;;160.18;40.03;;;-0.10;99.90;;;;;;4892199;29;20561;-82
2022/12/10 16:40:46;;;;;;;120.90;38.60;;;-0.10;99.90;;;;;;4902619;29;20035;-83
2022/12/10 16:43:32;;;;;;;151.93;38.40;;;-0.20;99.90;;;;;;4888113;29;20043;-82
2022/12/10 16:45:58;;;;;;;138.05;40.63;;;0.00;99.90;;;;;;4887057;29;20142;-84
2022/12/10 16:48:42;;;;;;;204.60;42.58;;;-0.20;99.90;;;;;;4902759;29;20055;-82
2022/12/10 16:51:41;;;;;;;163.98;41.45;;;-0.20;99.90;;;;;;4883058;29;20039;-85
2022/12/10 16:54:10;;;;;;;164.23;36.25;;;-0.10;99.90;;;;;;4875360;29;20709;-80
2022/12/10 16:56:37;;;;;;;121.95;37.20;;;-0.20;99.90;;;;;;4899531;29;20047;-80
2022/12/10 16:59:03;;;;;;;131.50;36.03;;;-0.30;99.90;;;;;;4913319;29;20043;-77
2022/12/10 17:01:30;;;;;;;192.30;38.03;;;-0.20;99.90;;;;;;4912281;29;20514;-80
2022/12/10 17:03:58;;;;;;;135.02;36.08;;;-0.20;99.90;;;;;;4911991;29;20147;-80
2022/12/10 17:06:24;;;;;;;154.95;37.92;;;-0.20;99.90;;;;;;4883497;29;20918;-79
2022/12/10 17:08:50;;;;;;;149.13;39.63;;;-0.20;99.90;;;;;;4902271;29;21125;-80
2022/12/10 17:14:32;;;;;;;179.35;38.65;;;-0.30;99.90;;;;;;4910847;29;20051;-80
2022/12/10 17:17:00;;;;;;;134.18;37.30;;;-0.30;99.90;;;;;;4909345;29;20584;-80
2022/12/10 17:19:31;;;;;;;165.50;38.20;;;-0.20;99.90;;;;;;4911025;29;20046;-81
2022/12/10 17:21:57;;;;;;;165.75;37.28;;;-0.30;99.90;;;;;;4892895;29;20044;-79
2022/12/10 17:24:22;;;;;;;144.85;38.85;;;-0.30;99.90;;;;;;4911536;29;20040;-79
2022/12/10 17:26:49;;;;;;;125.18;35.45;;;-0.30;99.90;;;;;;4909566;29;20043;-80
2022/12/10 17:29:23;;;;;;;147.20;37.33;;;0.00;99.90;;;;;;4907170;29;20114;-80
2022/12/10 17:31:49;;;;;;;167.32;38.40;;;-0.30;99.90;;;;;;4913227;29;21367;-80
2022/12/10 17:34:15;;;;;;;114.85;34.08;;;-0.20;99.90;;;;;;4911411;29;20040;-81
2022/12/10 17:36:41;;;;;;;160.52;34.75;;;-0.30;99.90;;;;;;4908704;29;20035;-80
2022/12/10 17:39:12;;;;;;;155.20;36.40;;;-0.20;99.90;;;;;;4895518;29;20082;-81
2022/12/10 17:41:37;;;;;;;190.63;36.70;;;-0.30;99.90;;;;;;4901327;29;20046;-81
2022/12/10 17:44:03;;;;;;;136.82;35.10;;;-0.30;99.90;;;;;;4894934;29;20048;-80
2022/12/10 17:46:29;;;;;;;170.00;36.03;;;-0.30;99.90;;;;;;4911171;29;20075;-80
2022/12/10 17:48:55;;;;;;;222.27;39.10;;;-0.40;99.90;;;;;;4898736;29;20046;-81
2022/12/10 17:51:21;;;;;;;158.68;35.38;;;-0.30;99.90;;;;;;4906984;29;20040;-82
2022/12/10 17:53:47;;;;;;;173.80;34.53;;;-0.30;99.90;;;;;;4912857;29;20098;-81
2022/12/10 17:56:16;;;;;;;166.20;35.65;;;-0.40;99.90;;;;;;4910348;29;20036;-82
2022/12/10 17:58:42;;;;;;;147.50;32.78;;;-0.30;99.90;;;;;;4906871;29;20036;-82
2022/12/10 18:01:09;;;;;;;104.95;32.03;;;-0.40;99.90;;;;;;4910173;29;20043;-82
2022/12/10 18:03:35;;;;;;;122.60;33.75;;;-0.40;99.90;;;;;;4916835;29;20130;-81
2022/12/10 18:06:02;;;;;;;129.70;34.00;;;-0.40;99.90;;;;;;4911364;29;20060;-81
2022/12/10 18:08:28;;;;;;;146.80;35.28;;;-0.40;99.90;;;;;;4915204;29;20069;-79
2022/12/10 18:10:54;;;;;;;142.10;36.05;;;-0.40;99.90;;;;;;4898958;29;20054;-82
2022/12/10 18:13:20;;;;;;;133.05;34.88;;;-0.30;99.90;;;;;;4903585;29;20051;-81
2022/12/10 18:15:46;;;;;;;160.73;35.28;;;-0.30;99.90;;;;;;4910677;29;20054;-80
2022/12/10 18:18:12;;;;;;;130.55;33.53;;;-0.30;99.90;;;;;;4926379;29;20036;-83
2022/12/10 18:20:39;;;;;;;103.45;28.40;;;-0.30;99.90;;;;;;4899633;29;20554;-82
2022/12/10 18:23:08;;;;;;;101.95;28.25;;;-0.30;99.90;;;;;;4900520;29;20048;-81
2022/12/10 18:25:35;;;;;;;76.07;26.15;;;-0.30;99.90;;;;;;4900622;29;20032;-81
2022/12/10 18:28:34;;;;;;;81.30;27.48;;;-0.40;99.90;;;;;;4898732;29;20068;-82
2022/12/10 18:31:00;;;;;;;92.43;27.92;;;-0.40;99.90;;;;;;4906462;29;20162;-79
2022/12/10 18:33:25;;;;;;;92.03;29.30;;;-0.40;99.90;;;;;;4915286;29;20399;-80
2022/12/10 18:35:51;;;;;;;92.55;28.33;;;-0.40;99.90;;;;;;4928628;29;20558;-79
2022/12/10 18:38:17;;;;;;;83.22;29.25;;;-0.40;99.90;;;;;;4912243;29;20099;-79
2022/12/10 18:40:44;;;;;;;92.28;29.05;;;-0.30;99.90;;;;;;4907955;29;20209;-79
2022/12/10 18:43:09;;;;;;;103.38;29.42;;;-0.30;99.90;;;;;;4897587;29;20090;-79
2022/12/10 18:45:35;;;;;;;96.35;29.13;;;-0.40;99.90;;;;;;4912056;29;20051;-79
2022/12/10 18:48:01;;;;;;;85.28;28.98;;;-0.40;99.90;;;;;;4916381;29;20158;-79
2022/12/10 18:50:29;;;;;;;91.68;26.52;;;-0.30;99.90;;;;;;4912555;29;20036;-78
2022/12/10 18:52:55;;;;;;;87.95;26.58;;;-0.40;99.90;;;;;;4928632;29;20039;-79
2022/12/10 18:55:22;;;;;;;86.55;27.92;;;-0.40;99.90;;;;;;4895841;29;20048;-79
2022/12/10 18:57:48;;;;;;;81.18;26.15;;;-0.40;99.90;;;;;;4920404;29;20127;-78
2022/12/10 19:00:18;;;;;;;85.60;27.70;;;-0.50;99.90;;;;;;4909192;29;20135;-79
2022/12/10 19:02:44;;;;;;;114.28;27.88;;;-0.40;99.90;;;;;;4927749;29;20059;-78
2022/12/10 19:05:10;;;;;;;94.68;27.85;;;-0.10;99.90;;;;;;4895215;29;21199;-79
2022/12/10 19:07:36;;;;;;;113.65;30.80;;;-0.40;99.90;;;;;;4913725;29;20039;-78
2022/12/10 19:10:03;;;;;;;111.80;29.15;;;-0.40;99.90;;;;;;4912810;29;20047;-79
2022/12/10 19:12:28;;;;;;;100.70;27.20;;;-0.40;99.90;;;;;;4927768;29;20118;-79
2022/12/10 19:14:54;;;;;;;74.50;27.65;;;-0.40;99.90;;;;;;4925471;29;20122;-77
2022/12/10 19:17:20;;;;;;;103.72;26.98;;;-0.40;99.90;;;;;;4911710;29;20527;-81
2022/12/10 19:19:45;;;;;;;103.72;27.73;;;-0.40;99.90;;;;;;4907705;29;20058;-83
2022/12/10 19:22:11;;;;;;;82.70;26.23;;;-0.40;99.90;;;;;;4903403;29;20782;-81
2022/12/10 19:24:36;;;;;;;98.95;30.13;;;-0.40;99.90;;;;;;4887306;29;20040;-83
2022/12/10 19:27:02;;;;;;;110.13;27.38;;;-0.40;99.90;;;;;;4920979;29;20040;-84
2022/12/10 19:30:19;;;;;;;91.28;26.73;;;-0.50;99.90;;;;;;4899633;29;20043;-86
2022/12/10 19:33:06;;;;;;;85.45;26.70;;;-0.50;99.90;;;;;;4938982;28;20047;-87
2022/12/10 19:35:35;;;;;;;75.90;26.73;;;-0.50;99.90;;;;;;4910978;29;20558;-87
2022/12/10 19:38:01;;;;;;;103.05;27.98;;;-0.50;99.90;;;;;;4898796;29;20075;-87
2022/12/10 19:44:08;;;;;;;101.10;27.52;;;-0.30;99.90;;;;;;4929099;29;20149;-82
2022/12/10 19:46:34;;;;;;;71.78;25.27;;;-0.50;99.90;;;;;;4909325;29;20146;-81
2022/12/10 19:48:59;;;;;;;98.15;27.80;;;-0.50;99.90;;;;;;4926677;29;20060;-80
2022/12/10 19:51:25;;;;;;;105.03;26.45;;;-0.50;99.90;;;;;;4901998;29;22207;-82
2022/12/10 19:53:51;;;;;;;100.47;28.50;;;-0.50;99.90;;;;;;4923380;29;20040;-81
2022/12/10 19:56:21;;;;;;;88.00;26.67;;;-0.50;99.90;;;;;;4886514;29;20054;-80
2022/12/10 19:58:48;;;;;;;75.43;26.63;;;-0.50;99.90;;;;;;4907696;29;20036;-82
2022/12/10 20:01:14;;;;;;;106.38;29.17;;;-0.50;99.90;;;;;;4899437;29;20043;-80
2022/12/10 20:03:40;;;;;;;120.38;29.85;;;-0.40;99.90;;;;;;4915882;29;20438;-82
2022/12/10 20:06:13;;;;;;;120.90;31.55;;;-0.50;99.90;;;;;;4891752;29;20035;-82
2022/12/10 20:08:39;;;;;;;87.50;25.85;;;-0.40;99.90;;;;;;4921741;29;20043;-80
2022/12/10 20:11:05;;;;;;;75.15;26.10;;;-0.40;99.90;;;;;;4908253;29;20043;-82
2022/12/10 20:13:31;;;;;;;86.22;26.73;;;-0.40;99.90;;;;;;4908757;29;20058;-81
2022/12/10 20:15:56;;;;;;;83.03;24.88;;;-0.20;99.90;;;;;;4914024;29;21018;-80
2022/12/10 20:18:22;;;;;;;86.25;26.52;;;-0.40;99.90;;;;;;4928184;29;20035;-82
2022/12/10 20:20:47;;;;;;;92.70;26.05;;;-0.50;99.90;;;;;;4923988;29;20074;-79
2022/12/10 20:23:13;;;;;;;104.28;27.60;;;-0.40;99.90;;;;;;4905516;29;20498;-82
2022/12/10 20:25:43;;;;;;;79.82;25.77;;;-0.50;99.90;;;;;;4893213;29;20569;-81
2022/12/10 20:28:14;;;;;;;74.32;25.10;;;-0.50;99.90;;;;;;4903836;29;20043;-79
2022/12/10 20:30:40;;;;;;;83.70;25.48;;;-0.20;99.90;;;;;;4897457;29;20047;-78
2022/12/10 20:33:06;;;;;;;95.15;28.02;;;-0.50;99.90;;;;;;4905113;29;20035;-80
2022/12/10 20:35:31;;;;;;;78.45;25.88;;;0.00;99.90;;;;;;4894031;29;20044;-81
2022/12/10 20:37:57;;;;;;;96.20;29.42;;;-0.50;99.90;;;;;;4910034;29;20068;-80
2022/12/10 20:40:24;;;;;;;78.95;26.50;;;-0.40;99.90;;;;;;4891854;29;20091;-81
2022/12/10 20:42:50;;;;;;;107.22;29.13;;;-0.30;99.90;;;;;;4890891;29;20066;-78
2022/12/10 20:45:16;;;;;;;92.60;27.50;;;-0.30;99.90;;;;;;4906906;29;20498;-80
2022/12/10 20:47:42;;;;;;;89.53;27.00;;;-0.40;99.90;;;;;;4906045;29;20035;-80
2022/12/10 20:50:15;;;;;;;82.68;27.08;;;-0.40;99.90;;;;;;4905233;29;20856;-79
2022/12/10 20:52:41;;;;;;;68.05;24.17;;;-0.40;99.90;;;;;;4892961;29;20046;-80
2022/12/10 20:55:07;;;;;;;56.83;21.92;;;-0.40;99.90;;;;;;4892479;29;20055;-80
2022/12/10 20:57:33;;;;;;;60.72;22.98;;;-0.40;99.90;;;;;;4892579;29;20091;-80
2022/12/10 20:59:58;;;;;;;58.00;21.38;;;-0.50;99.90;;;;;;4889289;29;20056;-79
2022/12/10 21:02:24;;;;;;;72.20;25.05;;;-0.40;99.90;;;;;;4906094;29;20402;-80
2022/12/10 21:04:50;;;;;;;69.57;23.70;;;-0.20;99.90;;;;;;4891147;29;20140;-78
2022/12/10 21:07:17;;;;;;;62.42;24.77;;;-0.50;99.90;;;;;;4906009;29;20138;-79
2022/12/10 21:09:43;;;;;;;83.93;25.92;;;-0.40;99.90;;;;;;4905799;29;20061;-79
2022/12/10 21:12:08;;;;;;;69.63;24.33;;;-0.50;99.90;;;;;;4891427;29;20451;-79
2022/12/10 21:14:34;;;;;;;75.57;24.15;;;-0.50;99.90;;;;;;4895328;29;20040;-81
2022/12/10 21:17:01;;;;;;;69.22;25.15;;;-0.50;99.90;;;;;;4888523;29;20127;-80
2022/12/10 21:19:27;;;;;;;80.43;25.02;;;-0.50;99.90;;;;;;4909816;29;20107;-78
2022/12/10 21:21:52;;;;;;;87.38;25.65;;;-0.50;99.90;;;;;;4908269;29;20055;-82